sensor_id;sensor_type;location;lat;lon;timestamp;P1;durP1;ratioP1;P2;durP2;ratioP2
19998;SDS011;10160;50.926;4.374;2023-05-10T00:01:07;14.70;;;7.50;;
19998;SDS011;10160;50.926;4.374;2023-05-10T00:03:32;18.70;;;7.80;;
19998;SDS011;10160;50.926;4.374;2023-05-10T00:05:58;18.33;;;8.07;;
19998;SDS011;10160;50.926;4.374;2023-05-10T00:08:24;17.60;;;7.73;;
19998;SDS011;10160;50.926;4.374;2023-05-10T00:10:50;25.67;;;9.80;;
19998;SDS011;10160;50.926;4.374;2023-05-10T00:13:15;16.07;;;8.97;;
19998;SDS011;10160;50.926;4.374;2023-05-10T00:15:41;20.77;;;9.37;;
19998;SDS011;10160;50.926;4.374;2023-05-10T00:18:07;22.93;;;9.57;;
19998;SDS011;10160;50.926;4.374;2023-05-10T00:20:33;18.97;;;9.37;;
19998;SDS011;10160;50.926;4.374;2023-05-10T00:22:58;23.73;;;9.77;;
19998;SDS011;10160;50.926;4.374;2023-05-10T00:25:24;18.10;;;9.10;;
19998;SDS011;10160;50.926;4.374;2023-05-10T00:27:50;20.17;;;9.13;;
19998;SDS011;10160;50.926;4.374;2023-05-10T00:30:15;20.97;;;10.23;;
19998;SDS011;10160;50.926;4.374;2023-05-10T00:32:41;21.70;;;10.33;;
19998;SDS011;10160;50.926;4.374;2023-05-10T00:35:08;20.13;;;10.10;;
19998;SDS011;10160;50.926;4.374;2023-05-10T00:37:34;20.60;;;10.43;;
19998;SDS011;10160;50.926;4.374;2023-05-10T00:39:59;23.43;;;10.83;;
19998;SDS011;10160;50.926;4.374;2023-05-10T00:42:25;19.27;;;10.00;;
19998;SDS011;10160;50.926;4.374;2023-05-10T00:44:51;25.03;;;11.20;;
19998;SDS011;10160;50.926;4.374;2023-05-10T00:47:16;19.50;;;9.60;;
19998;SDS011;10160;50.926;4.374;2023-05-10T00:49:42;27.60;;;11.23;;
19998;SDS011;10160;50.926;4.374;2023-05-10T00:52:09;23.70;;;10.87;;
19998;SDS011;10160;50.926;4.374;2023-05-10T00:54:35;20.53;;;10.47;;
19998;SDS011;10160;50.926;4.374;2023-05-10T00:57:01;23.93;;;10.33;;
19998;SDS011;10160;50.926;4.374;2023-05-10T00:59:27;22.97;;;10.83;;
19998;SDS011;10160;50.926;4.374;2023-05-10T01:01:53;27.33;;;10.63;;
19998;SDS011;10160;50.926;4.374;2023-05-10T01:04:19;21.87;;;11.20;;
19998;SDS011;10160;50.926;4.374;2023-05-10T01:06:50;23.23;;;11.70;;
19998;SDS011;10160;50.926;4.374;2023-05-10T01:09:16;24.57;;;11.13;;
19998;SDS011;10160;50.926;4.374;2023-05-10T01:11:43;22.47;;;11.67;;
19998;SDS011;10160;50.926;4.374;2023-05-10T01:14:09;20.70;;;10.90;;
19998;SDS011;10160;50.926;4.374;2023-05-10T01:16:36;18.80;;;10.37;;
19998;SDS011;10160;50.926;4.374;2023-05-10T01:19:04;24.13;;;11.97;;
19998;SDS011;10160;50.926;4.374;2023-05-10T01:21:53;24.20;;;11.60;;
19998;SDS011;10160;50.926;4.374;2023-05-10T01:25:00;23.33;;;12.27;;
19998;SDS011;10160;50.926;4.374;2023-05-10T01:32:51;27.63;;;12.23;;
19998;SDS011;10160;50.926;4.374;2023-05-10T01:35:37;22.83;;;12.27;;
19998;SDS011;10160;50.926;4.374;2023-05-10T01:43:23;25.03;;;12.47;;
19998;SDS011;10160;50.926;4.374;2023-05-10T01:46:03;28.37;;;12.80;;
19998;SDS011;10160;50.926;4.374;2023-05-10T01:48:40;21.03;;;12.47;;
19998;SDS011;10160;50.926;4.374;2023-05-10T01:51:13;28.80;;;13.20;;
19998;SDS011;10160;50.926;4.374;2023-05-10T01:53:46;23.40;;;11.37;;
19998;SDS011;10160;50.926;4.374;2023-05-10T01:56:13;29.00;;;13.13;;
19998;SDS011;10160;50.926;4.374;2023-05-10T01:58:40;22.50;;;12.27;;
19998;SDS011;10160;50.926;4.374;2023-05-10T02:01:10;22.83;;;12.23;;
19998;SDS011;10160;50.926;4.374;2023-05-10T02:03:37;24.47;;;12.87;;
19998;SDS011;10160;50.926;4.374;2023-05-10T02:06:05;27.73;;;13.73;;
19998;SDS011;10160;50.926;4.374;2023-05-10T02:08:32;24.70;;;13.40;;
19998;SDS011;10160;50.926;4.374;2023-05-10T02:11:00;28.57;;;13.07;;
19998;SDS011;10160;50.926;4.374;2023-05-10T02:13:27;22.57;;;11.23;;
19998;SDS011;10160;50.926;4.374;2023-05-10T02:15:53;20.77;;;9.93;;
19998;SDS011;10160;50.926;4.374;2023-05-10T02:18:22;28.60;;;12.83;;
19998;SDS011;10160;50.926;4.374;2023-05-10T02:20:50;27.90;;;13.07;;
19998;SDS011;10160;50.926;4.374;2023-05-10T02:23:18;26.10;;;13.40;;
19998;SDS011;10160;50.926;4.374;2023-05-10T02:25:47;28.13;;;12.77;;
19998;SDS011;10160;50.926;4.374;2023-05-10T02:28:14;26.97;;;13.93;;
19998;SDS011;10160;50.926;4.374;2023-05-10T02:30:42;22.50;;;12.77;;
19998;SDS011;10160;50.926;4.374;2023-05-10T02:33:08;26.90;;;12.43;;
19998;SDS011;10160;50.926;4.374;2023-05-10T02:35:35;27.10;;;13.73;;
19998;SDS011;10160;50.926;4.374;2023-05-10T02:38:02;30.73;;;15.00;;
19998;SDS011;10160;50.926;4.374;2023-05-10T02:40:29;28.07;;;14.17;;
19998;SDS011;10160;50.926;4.374;2023-05-10T02:42:56;32.37;;;14.27;;
19998;SDS011;10160;50.926;4.374;2023-05-10T02:45:24;32.23;;;14.60;;
19998;SDS011;10160;50.926;4.374;2023-05-10T02:47:53;31.90;;;14.13;;
19998;SDS011;10160;50.926;4.374;2023-05-10T02:50:19;30.87;;;13.83;;
19998;SDS011;10160;50.926;4.374;2023-05-10T02:52:46;28.70;;;14.43;;
19998;SDS011;10160;50.926;4.374;2023-05-10T02:55:15;27.43;;;13.40;;
19998;SDS011;10160;50.926;4.374;2023-05-10T02:58:00;30.43;;;13.77;;
19998;SDS011;10160;50.926;4.374;2023-05-10T03:00:27;33.07;;;13.70;;
19998;SDS011;10160;50.926;4.374;2023-05-10T03:02:53;29.77;;;14.80;;
19998;SDS011;10160;50.926;4.374;2023-05-10T03:05:19;27.10;;;13.67;;
19998;SDS011;10160;50.926;4.374;2023-05-10T03:07:45;24.77;;;13.27;;
19998;SDS011;10160;50.926;4.374;2023-05-10T03:10:12;29.20;;;14.37;;
19998;SDS011;10160;50.926;4.374;2023-05-10T03:12:52;26.43;;;13.27;;
19998;SDS011;10160;50.926;4.374;2023-05-10T03:15:58;29.50;;;14.83;;
19998;SDS011;10160;50.926;4.374;2023-05-10T03:18:37;28.73;;;14.50;;
19998;SDS011;10160;50.926;4.374;2023-05-10T03:21:10;30.00;;;14.67;;
19998;SDS011;10160;50.926;4.374;2023-05-10T03:26:08;26.13;;;14.27;;
19998;SDS011;10160;50.926;4.374;2023-05-10T03:28:34;28.53;;;14.60;;
19998;SDS011;10160;50.926;4.374;2023-05-10T03:31:02;31.07;;;15.77;;
19998;SDS011;10160;50.926;4.374;2023-05-10T03:33:30;32.37;;;16.17;;
19998;SDS011;10160;50.926;4.374;2023-05-10T03:35:57;30.03;;;15.53;;
19998;SDS011;10160;50.926;4.374;2023-05-10T03:38:23;32.73;;;16.70;;
19998;SDS011;10160;50.926;4.374;2023-05-10T03:40:48;32.10;;;16.20;;
19998;SDS011;10160;50.926;4.374;2023-05-10T03:43:14;31.50;;;16.27;;
19998;SDS011;10160;50.926;4.374;2023-05-10T03:45:40;29.07;;;16.57;;
19998;SDS011;10160;50.926;4.374;2023-05-10T03:48:05;35.80;;;16.70;;
19998;SDS011;10160;50.926;4.374;2023-05-10T03:50:31;36.70;;;17.80;;
19998;SDS011;10160;50.926;4.374;2023-05-10T03:52:56;32.43;;;16.00;;
19998;SDS011;10160;50.926;4.374;2023-05-10T03:55:22;34.67;;;17.53;;
19998;SDS011;10160;50.926;4.374;2023-05-10T03:57:48;38.83;;;18.77;;
19998;SDS011;10160;50.926;4.374;2023-05-10T04:00:18;32.03;;;16.27;;
19998;SDS011;10160;50.926;4.374;2023-05-10T04:02:44;34.17;;;16.53;;
19998;SDS011;10160;50.926;4.374;2023-05-10T04:05:10;33.43;;;16.83;;
19998;SDS011;10160;50.926;4.374;2023-05-10T04:07:36;33.90;;;17.23;;
19998;SDS011;10160;50.926;4.374;2023-05-10T04:10:01;39.33;;;16.80;;
19998;SDS011;10160;50.926;4.374;2023-05-10T04:12:27;34.00;;;17.63;;
19998;SDS011;10160;50.926;4.374;2023-05-10T04:14:53;31.90;;;16.90;;
19998;SDS011;10160;50.926;4.374;2023-05-10T04:17:18;41.83;;;18.23;;
19998;SDS011;10160;50.926;4.374;2023-05-10T04:19:44;36.70;;;19.03;;
19998;SDS011;10160;50.926;4.374;2023-05-10T04:22:10;40.07;;;19.20;;
19998;SDS011;10160;50.926;4.374;2023-05-10T04:24:35;38.37;;;19.87;;
19998;SDS011;10160;50.926;4.374;2023-05-10T04:27:01;41.13;;;19.10;;
19998;SDS011;10160;50.926;4.374;2023-05-10T04:29:27;40.23;;;19.43;;
19998;SDS011;10160;50.926;4.374;2023-05-10T04:31:52;34.63;;;19.13;;
19998;SDS011;10160;50.926;4.374;2023-05-10T04:34:20;39.83;;;20.33;;
19998;SDS011;10160;50.926;4.374;2023-05-10T04:36:46;41.20;;;20.50;;
19998;SDS011;10160;50.926;4.374;2023-05-10T04:39:11;36.47;;;19.70;;
19998;SDS011;10160;50.926;4.374;2023-05-10T04:41:38;38.43;;;19.40;;
19998;SDS011;10160;50.926;4.374;2023-05-10T04:44:04;37.57;;;18.60;;
19998;SDS011;10160;50.926;4.374;2023-05-10T04:46:29;35.83;;;19.33;;
19998;SDS011;10160;50.926;4.374;2023-05-10T04:48:55;36.87;;;19.33;;
19998;SDS011;10160;50.926;4.374;2023-05-10T04:51:21;39.80;;;18.93;;
19998;SDS011;10160;50.926;4.374;2023-05-10T04:53:46;37.17;;;18.33;;
19998;SDS011;10160;50.926;4.374;2023-05-10T04:56:12;33.60;;;18.57;;
19998;SDS011;10160;50.926;4.374;2023-05-10T04:58:38;40.33;;;19.33;;
19998;SDS011;10160;50.926;4.374;2023-05-10T05:01:07;36.83;;;18.53;;
19998;SDS011;10160;50.926;4.374;2023-05-10T05:03:35;37.43;;;18.60;;
19998;SDS011;10160;50.926;4.374;2023-05-10T05:06:02;42.97;;;19.17;;
19998;SDS011;10160;50.926;4.374;2023-05-10T05:08:28;39.63;;;18.83;;
19998;SDS011;10160;50.926;4.374;2023-05-10T05:10:53;38.40;;;19.37;;
19998;SDS011;10160;50.926;4.374;2023-05-10T05:13:19;37.60;;;19.27;;
19998;SDS011;10160;50.926;4.374;2023-05-10T05:15:45;38.30;;;19.70;;
19998;SDS011;10160;50.926;4.374;2023-05-10T05:18:11;34.03;;;18.40;;
19998;SDS011;10160;50.926;4.374;2023-05-10T05:20:36;37.90;;;19.40;;
19998;SDS011;10160;50.926;4.374;2023-05-10T05:23:02;37.13;;;18.47;;
19998;SDS011;10160;50.926;4.374;2023-05-10T05:25:28;37.47;;;18.30;;
19998;SDS011;10160;50.926;4.374;2023-05-10T05:27:53;32.17;;;17.63;;
19998;SDS011;10160;50.926;4.374;2023-05-10T05:30:19;32.27;;;17.43;;
19998;SDS011;10160;50.926;4.374;2023-05-10T05:32:45;35.33;;;18.20;;
19998;SDS011;10160;50.926;4.374;2023-05-10T05:35:12;34.70;;;17.40;;
19998;SDS011;10160;50.926;4.374;2023-05-10T05:37:38;32.77;;;17.13;;
19998;SDS011;10160;50.926;4.374;2023-05-10T05:40:04;31.63;;;17.50;;
19998;SDS011;10160;50.926;4.374;2023-05-10T05:42:30;32.93;;;17.83;;
19998;SDS011;10160;50.926;4.374;2023-05-10T05:44:56;36.73;;;16.90;;
19998;SDS011;10160;50.926;4.374;2023-05-10T05:47:22;33.47;;;17.47;;
19998;SDS011;10160;50.926;4.374;2023-05-10T05:49:48;35.50;;;17.93;;
19998;SDS011;10160;50.926;4.374;2023-05-10T05:52:13;31.90;;;17.73;;
19998;SDS011;10160;50.926;4.374;2023-05-10T05:54:39;32.37;;;18.10;;
19998;SDS011;10160;50.926;4.374;2023-05-10T05:57:05;36.40;;;17.97;;
19998;SDS011;10160;50.926;4.374;2023-05-10T05:59:30;36.30;;;17.97;;
19998;SDS011;10160;50.926;4.374;2023-05-10T06:01:56;29.53;;;17.73;;
19998;SDS011;10160;50.926;4.374;2023-05-10T06:04:22;31.00;;;16.97;;
19998;SDS011;10160;50.926;4.374;2023-05-10T06:06:47;33.47;;;18.57;;
19998;SDS011;10160;50.926;4.374;2023-05-10T06:09:13;34.17;;;18.37;;
19998;SDS011;10160;50.926;4.374;2023-05-10T06:11:39;30.10;;;17.50;;
19998;SDS011;10160;50.926;4.374;2023-05-10T06:14:04;31.53;;;18.00;;
19998;SDS011;10160;50.926;4.374;2023-05-10T06:16:32;30.33;;;18.07;;
19998;SDS011;10160;50.926;4.374;2023-05-10T06:18:57;35.00;;;19.80;;
19998;SDS011;10160;50.926;4.374;2023-05-10T06:21:23;35.97;;;19.47;;
19998;SDS011;10160;50.926;4.374;2023-05-10T06:23:49;38.20;;;20.33;;
19998;SDS011;10160;50.926;4.374;2023-05-10T06:26:14;42.70;;;22.43;;
19998;SDS011;10160;50.926;4.374;2023-05-10T06:28:40;43.70;;;23.00;;
19998;SDS011;10160;50.926;4.374;2023-05-10T06:31:06;37.10;;;21.20;;
19998;SDS011;10160;50.926;4.374;2023-05-10T06:33:32;34.27;;;19.63;;
19998;SDS011;10160;50.926;4.374;2023-05-10T06:35:58;40.00;;;20.00;;
19998;SDS011;10160;50.926;4.374;2023-05-10T06:38:24;38.20;;;20.20;;
19998;SDS011;10160;50.926;4.374;2023-05-10T06:40:50;39.07;;;19.83;;
19998;SDS011;10160;50.926;4.374;2023-05-10T06:43:16;41.07;;;19.97;;
19998;SDS011;10160;50.926;4.374;2023-05-10T06:45:42;34.60;;;18.00;;
19998;SDS011;10160;50.926;4.374;2023-05-10T06:48:07;43.53;;;20.53;;
19998;SDS011;10160;50.926;4.374;2023-05-10T06:50:33;38.63;;;19.60;;
19998;SDS011;10160;50.926;4.374;2023-05-10T06:52:59;38.93;;;19.57;;
19998;SDS011;10160;50.926;4.374;2023-05-10T06:55:25;35.97;;;19.17;;
19998;SDS011;10160;50.926;4.374;2023-05-10T06:57:51;45.10;;;19.63;;
19998;SDS011;10160;50.926;4.374;2023-05-10T07:00:18;39.13;;;19.40;;
19998;SDS011;10160;50.926;4.374;2023-05-10T07:02:44;33.07;;;18.90;;
19998;SDS011;10160;50.926;4.374;2023-05-10T07:05:10;39.70;;;20.47;;
19998;SDS011;10160;50.926;4.374;2023-05-10T07:07:36;45.30;;;20.50;;
19998;SDS011;10160;50.926;4.374;2023-05-10T07:10:02;43.83;;;20.17;;
19998;SDS011;10160;50.926;4.374;2023-05-10T07:12:28;47.57;;;22.03;;
19998;SDS011;10160;50.926;4.374;2023-05-10T07:14:54;44.80;;;21.63;;
19998;SDS011;10160;50.926;4.374;2023-05-10T07:17:20;39.93;;;20.53;;
19998;SDS011;10160;50.926;4.374;2023-05-10T07:19:45;39.67;;;18.87;;
19998;SDS011;10160;50.926;4.374;2023-05-10T07:22:11;47.97;;;22.13;;
19998;SDS011;10160;50.926;4.374;2023-05-10T07:24:37;39.47;;;19.87;;
19998;SDS011;10160;50.926;4.374;2023-05-10T07:27:02;42.53;;;21.00;;
19998;SDS011;10160;50.926;4.374;2023-05-10T07:29:29;46.67;;;20.33;;
19998;SDS011;10160;50.926;4.374;2023-05-10T07:31:55;37.43;;;19.63;;
19998;SDS011;10160;50.926;4.374;2023-05-10T07:34:20;39.17;;;18.27;;
19998;SDS011;10160;50.926;4.374;2023-05-10T07:36:46;45.07;;;20.63;;
19998;SDS011;10160;50.926;4.374;2023-05-10T07:39:12;37.73;;;18.43;;
19998;SDS011;10160;50.926;4.374;2023-05-10T07:41:38;45.67;;;19.53;;
19998;SDS011;10160;50.926;4.374;2023-05-10T07:44:04;39.97;;;19.40;;
19998;SDS011;10160;50.926;4.374;2023-05-10T07:46:30;39.27;;;19.83;;
19998;SDS011;10160;50.926;4.374;2023-05-10T07:48:56;43.33;;;20.20;;
19998;SDS011;10160;50.926;4.374;2023-05-10T07:51:22;39.63;;;18.20;;
19998;SDS011;10160;50.926;4.374;2023-05-10T07:53:47;39.67;;;16.83;;
19998;SDS011;10160;50.926;4.374;2023-05-10T07:58:46;37.83;;;17.50;;
19998;SDS011;10160;50.926;4.374;2023-05-10T08:01:13;36.27;;;16.90;;
19998;SDS011;10160;50.926;4.374;2023-05-10T08:03:39;34.47;;;15.77;;
19998;SDS011;10160;50.926;4.374;2023-05-10T08:06:04;28.63;;;12.97;;
19998;SDS011;10160;50.926;4.374;2023-05-10T08:08:30;31.47;;;14.47;;
19998;SDS011;10160;50.926;4.374;2023-05-10T08:10:56;30.27;;;12.40;;
19998;SDS011;10160;50.926;4.374;2023-05-10T08:13:22;27.87;;;13.13;;
19998;SDS011;10160;50.926;4.374;2023-05-10T08:15:47;34.50;;;13.03;;
19998;SDS011;10160;50.926;4.374;2023-05-10T08:18:13;30.00;;;13.10;;
19998;SDS011;10160;50.926;4.374;2023-05-10T08:20:39;27.87;;;11.67;;
19998;SDS011;10160;50.926;4.374;2023-05-10T08:23:04;25.87;;;11.40;;
19998;SDS011;10160;50.926;4.374;2023-05-10T08:25:31;29.30;;;11.40;;
19998;SDS011;10160;50.926;4.374;2023-05-10T08:27:56;28.23;;;11.47;;
19998;SDS011;10160;50.926;4.374;2023-05-10T08:30:22;35.10;;;13.30;;
19998;SDS011;10160;50.926;4.374;2023-05-10T08:32:48;26.60;;;11.97;;
19998;SDS011;10160;50.926;4.374;2023-05-10T08:35:13;28.80;;;12.13;;
19998;SDS011;10160;50.926;4.374;2023-05-10T08:37:40;32.17;;;12.53;;
19998;SDS011;10160;50.926;4.374;2023-05-10T08:40:06;21.30;;;11.93;;
19998;SDS011;10160;50.926;4.374;2023-05-10T08:42:34;25.70;;;11.30;;
19998;SDS011;10160;50.926;4.374;2023-05-10T08:45:05;27.23;;;11.60;;
19998;SDS011;10160;50.926;4.374;2023-05-10T08:47:33;26.27;;;12.13;;
19998;SDS011;10160;50.926;4.374;2023-05-10T08:50:01;26.17;;;12.27;;
19998;SDS011;10160;50.926;4.374;2023-05-10T08:52:28;23.97;;;11.80;;
19998;SDS011;10160;50.926;4.374;2023-05-10T08:54:56;25.10;;;10.93;;
19998;SDS011;10160;50.926;4.374;2023-05-10T08:57:22;22.63;;;11.37;;
19998;SDS011;10160;50.926;4.374;2023-05-10T08:59:48;21.30;;;10.47;;
19998;SDS011;10160;50.926;4.374;2023-05-10T09:02:13;24.97;;;11.40;;
19998;SDS011;10160;50.926;4.374;2023-05-10T09:04:39;23.13;;;9.83;;
19998;SDS011;10160;50.926;4.374;2023-05-10T09:07:06;23.97;;;10.83;;
19998;SDS011;10160;50.926;4.374;2023-05-10T09:09:31;20.93;;;10.27;;
19998;SDS011;10160;50.926;4.374;2023-05-10T09:11:58;20.47;;;10.53;;
19998;SDS011;10160;50.926;4.374;2023-05-10T09:14:24;18.83;;;9.83;;
19998;SDS011;10160;50.926;4.374;2023-05-10T09:16:51;18.13;;;10.37;;
19998;SDS011;10160;50.926;4.374;2023-05-10T09:19:18;20.87;;;10.73;;
19998;SDS011;10160;50.926;4.374;2023-05-10T09:21:44;24.10;;;11.00;;
19998;SDS011;10160;50.926;4.374;2023-05-10T09:24:10;23.23;;;10.03;;
19998;SDS011;10160;50.926;4.374;2023-05-10T09:26:45;25.07;;;10.07;;
19998;SDS011;10160;50.926;4.374;2023-05-10T09:29:15;16.67;;;8.80;;
19998;SDS011;10160;50.926;4.374;2023-05-10T09:31:45;18.63;;;9.43;;
19998;SDS011;10160;50.926;4.374;2023-05-10T09:34:20;18.37;;;10.30;;
19998;SDS011;10160;50.926;4.374;2023-05-10T09:36:57;15.47;;;9.40;;
19998;SDS011;10160;50.926;4.374;2023-05-10T09:39:30;18.03;;;9.60;;
19998;SDS011;10160;50.926;4.374;2023-05-10T09:42:01;17.37;;;9.77;;
19998;SDS011;10160;50.926;4.374;2023-05-10T09:44:29;16.80;;;9.07;;
19998;SDS011;10160;50.926;4.374;2023-05-10T09:46:55;22.67;;;10.33;;
19998;SDS011;10160;50.926;4.374;2023-05-10T09:49:22;17.90;;;9.23;;
19998;SDS011;10160;50.926;4.374;2023-05-10T09:51:57;19.40;;;9.73;;
19998;SDS011;10160;50.926;4.374;2023-05-10T09:54:29;21.30;;;10.10;;
19998;SDS011;10160;50.926;4.374;2023-05-10T09:56:54;19.17;;;9.43;;
19998;SDS011;10160;50.926;4.374;2023-05-10T09:59:20;17.23;;;9.30;;
19998;SDS011;10160;50.926;4.374;2023-05-10T10:01:50;17.40;;;9.13;;
19998;SDS011;10160;50.926;4.374;2023-05-10T10:04:16;16.20;;;9.20;;
19998;SDS011;10160;50.926;4.374;2023-05-10T10:06:42;17.63;;;7.93;;
19998;SDS011;10160;50.926;4.374;2023-05-10T10:09:08;14.33;;;8.17;;
19998;SDS011;10160;50.926;4.374;2023-05-10T10:11:35;18.63;;;8.63;;
19998;SDS011;10160;50.926;4.374;2023-05-10T10:14:02;17.53;;;8.67;;
19998;SDS011;10160;50.926;4.374;2023-05-10T10:16:28;14.63;;;8.03;;
19998;SDS011;10160;50.926;4.374;2023-05-10T10:18:55;19.73;;;8.73;;
19998;SDS011;10160;50.926;4.374;2023-05-10T10:21:22;15.93;;;8.83;;
19998;SDS011;10160;50.926;4.374;2023-05-10T10:23:48;17.37;;;8.57;;
19998;SDS011;10160;50.926;4.374;2023-05-10T10:26:15;17.70;;;8.17;;
19998;SDS011;10160;50.926;4.374;2023-05-10T10:28:50;15.20;;;8.00;;
19998;SDS011;10160;50.926;4.374;2023-05-10T10:31:32;14.63;;;7.07;;
19998;SDS011;10160;50.926;4.374;2023-05-10T10:34:28;19.17;;;9.00;;
19998;SDS011;10160;50.926;4.374;2023-05-10T10:36:55;16.37;;;8.03;;
19998;SDS011;10160;50.926;4.374;2023-05-10T10:39:22;13.10;;;6.47;;
19998;SDS011;10160;50.926;4.374;2023-05-10T10:41:56;12.33;;;6.70;;
19998;SDS011;10160;50.926;4.374;2023-05-10T10:44:23;14.73;;;7.93;;
19998;SDS011;10160;50.926;4.374;2023-05-10T10:49:33;12.10;;;7.30;;
19998;SDS011;10160;50.926;4.374;2023-05-10T10:54:59;12.93;;;7.70;;
19998;SDS011;10160;50.926;4.374;2023-05-10T10:57:31;14.87;;;8.40;;
19998;SDS011;10160;50.926;4.374;2023-05-10T11:02:50;14.17;;;7.40;;
19998;SDS011;10160;50.926;4.374;2023-05-10T11:05:25;15.23;;;8.80;;
19998;SDS011;10160;50.926;4.374;2023-05-10T11:11:01;12.60;;;7.93;;
19998;SDS011;10160;50.926;4.374;2023-05-10T11:18:40;14.23;;;7.87;;
19998;SDS011;10160;50.926;4.374;2023-05-10T11:21:22;12.40;;;7.17;;
19998;SDS011;10160;50.926;4.374;2023-05-10T11:23:49;12.60;;;7.10;;
19998;SDS011;10160;50.926;4.374;2023-05-10T11:26:16;11.30;;;6.33;;
19998;SDS011;10160;50.926;4.374;2023-05-10T11:28:46;10.30;;;6.37;;
19998;SDS011;10160;50.926;4.374;2023-05-10T11:31:14;16.50;;;7.20;;
19998;SDS011;10160;50.926;4.374;2023-05-10T11:36:16;12.23;;;6.87;;
19998;SDS011;10160;50.926;4.374;2023-05-10T11:38:43;11.07;;;6.10;;
19998;SDS011;10160;50.926;4.374;2023-05-10T11:41:10;13.27;;;5.63;;
19998;SDS011;10160;50.926;4.374;2023-05-10T11:43:37;12.57;;;5.90;;
19998;SDS011;10160;50.926;4.374;2023-05-10T11:46:05;11.87;;;6.63;;
19998;SDS011;10160;50.926;4.374;2023-05-10T11:48:35;12.20;;;6.07;;
19998;SDS011;10160;50.926;4.374;2023-05-10T11:51:01;10.07;;;6.20;;
19998;SDS011;10160;50.926;4.374;2023-05-10T11:53:31;12.13;;;6.43;;
19998;SDS011;10160;50.926;4.374;2023-05-10T11:56:04;14.03;;;7.33;;
19998;SDS011;10160;50.926;4.374;2023-05-10T11:58:31;13.47;;;6.97;;
19998;SDS011;10160;50.926;4.374;2023-05-10T12:00:58;12.93;;;7.00;;
19998;SDS011;10160;50.926;4.374;2023-05-10T12:03:25;15.37;;;7.53;;
19998;SDS011;10160;50.926;4.374;2023-05-10T12:05:54;14.03;;;7.47;;
19998;SDS011;10160;50.926;4.374;2023-05-10T12:08:22;15.07;;;8.27;;
19998;SDS011;10160;50.926;4.374;2023-05-10T12:10:49;15.47;;;8.37;;
19998;SDS011;10160;50.926;4.374;2023-05-10T12:13:15;14.77;;;8.60;;
19998;SDS011;10160;50.926;4.374;2023-05-10T12:15:42;13.53;;;8.20;;
19998;SDS011;10160;50.926;4.374;2023-05-10T12:18:09;12.63;;;7.90;;
19998;SDS011;10160;50.926;4.374;2023-05-10T12:20:35;15.57;;;7.90;;
19998;SDS011;10160;50.926;4.374;2023-05-10T12:23:01;13.03;;;7.77;;
19998;SDS011;10160;50.926;4.374;2023-05-10T12:25:32;14.43;;;7.60;;
19998;SDS011;10160;50.926;4.374;2023-05-10T12:27:59;16.33;;;7.80;;
19998;SDS011;10160;50.926;4.374;2023-05-10T12:30:28;14.83;;;8.70;;
19998;SDS011;10160;50.926;4.374;2023-05-10T12:33:02;15.57;;;8.53;;
19998;SDS011;10160;50.926;4.374;2023-05-10T12:35:44;15.20;;;7.33;;
19998;SDS011;10160;50.926;4.374;2023-05-10T12:41:14;12.40;;;7.40;;
19998;SDS011;10160;50.926;4.374;2023-05-10T12:43:41;16.80;;;8.93;;
19998;SDS011;10160;50.926;4.374;2023-05-10T12:46:07;17.57;;;8.73;;
19998;SDS011;10160;50.926;4.374;2023-05-10T12:48:38;14.33;;;7.93;;
19998;SDS011;10160;50.926;4.374;2023-05-10T12:51:05;14.73;;;8.27;;
19998;SDS011;10160;50.926;4.374;2023-05-10T12:53:34;17.67;;;8.30;;
19998;SDS011;10160;50.926;4.374;2023-05-10T12:56:00;18.50;;;8.53;;
19998;SDS011;10160;50.926;4.374;2023-05-10T12:58:25;14.27;;;8.90;;
19998;SDS011;10160;50.926;4.374;2023-05-10T13:00:51;15.90;;;9.23;;
19998;SDS011;10160;50.926;4.374;2023-05-10T13:03:17;18.17;;;9.55;;
19998;SDS011;10160;50.926;4.374;2023-05-10T13:05:43;17.87;;;9.27;;
19998;SDS011;10160;50.926;4.374;2023-05-10T13:08:09;14.18;;;8.48;;
19998;SDS011;10160;50.926;4.374;2023-05-10T13:10:34;14.63;;;8.52;;
19998;SDS011;10160;50.926;4.374;2023-05-10T13:13:00;22.27;;;9.35;;
19998;SDS011;10160;50.926;4.374;2023-05-10T13:15:26;14.75;;;8.88;;
19998;SDS011;10160;50.926;4.374;2023-05-10T13:17:52;13.27;;;8.02;;
19998;SDS011;10160;50.926;4.374;2023-05-10T13:20:19;16.02;;;9.02;;
19998;SDS011;10160;50.926;4.374;2023-05-10T13:22:44;18.52;;;9.35;;
19998;SDS011;10160;50.926;4.374;2023-05-10T13:25:10;12.18;;;8.05;;
19998;SDS011;10160;50.926;4.374;2023-05-10T13:27:37;15.32;;;8.40;;
19998;SDS011;10160;50.926;4.374;2023-05-10T13:30:04;13.52;;;8.02;;
19998;SDS011;10160;50.926;4.374;2023-05-10T13:32:48;14.68;;;8.27;;
19998;SDS011;10160;50.926;4.374;2023-05-10T13:35:15;13.15;;;8.05;;
19998;SDS011;10160;50.926;4.374;2023-05-10T13:37:40;14.70;;;7.93;;
19998;SDS011;10160;50.926;4.374;2023-05-10T13:40:06;16.92;;;9.07;;
19998;SDS011;10160;50.926;4.374;2023-05-10T13:42:32;13.73;;;8.82;;
19998;SDS011;10160;50.926;4.374;2023-05-10T13:44:58;15.40;;;8.98;;
19998;SDS011;10160;50.926;4.374;2023-05-10T13:47:26;18.02;;;8.75;;
19998;SDS011;10160;50.926;4.374;2023-05-10T13:49:51;19.70;;;8.90;;
19998;SDS011;10160;50.926;4.374;2023-05-10T13:52:17;16.25;;;9.27;;
19998;SDS011;10160;50.926;4.374;2023-05-10T13:54:43;16.08;;;9.48;;
19998;SDS011;10160;50.926;4.374;2023-05-10T13:57:08;19.45;;;10.05;;
19998;SDS011;10160;50.926;4.374;2023-05-10T13:59:36;17.02;;;10.43;;
19998;SDS011;10160;50.926;4.374;2023-05-10T14:02:02;18.33;;;11.77;;
19998;SDS011;10160;50.926;4.374;2023-05-10T14:04:28;19.65;;;11.98;;
19998;SDS011;10160;50.926;4.374;2023-05-10T14:06:54;16.27;;;10.25;;
19998;SDS011;10160;50.926;4.374;2023-05-10T14:09:19;18.05;;;10.43;;
19998;SDS011;10160;50.926;4.374;2023-05-10T14:11:45;20.02;;;11.70;;
19998;SDS011;10160;50.926;4.374;2023-05-10T14:14:11;21.08;;;12.13;;
19998;SDS011;10160;50.926;4.374;2023-05-10T14:16:38;22.70;;;12.20;;
19998;SDS011;10160;50.926;4.374;2023-05-10T14:19:08;20.30;;;11.82;;
19998;SDS011;10160;50.926;4.374;2023-05-10T14:21:34;20.38;;;12.13;;
19998;SDS011;10160;50.926;4.374;2023-05-10T14:23:59;22.33;;;11.73;;
19998;SDS011;10160;50.926;4.374;2023-05-10T14:26:25;25.75;;;13.43;;
19998;SDS011;10160;50.926;4.374;2023-05-10T14:28:51;24.88;;;13.63;;
19998;SDS011;10160;50.926;4.374;2023-05-10T14:31:17;22.38;;;12.73;;
19998;SDS011;10160;50.926;4.374;2023-05-10T14:33:45;18.85;;;12.02;;
19998;SDS011;10160;50.926;4.374;2023-05-10T14:36:13;20.75;;;12.40;;
19998;SDS011;10160;50.926;4.374;2023-05-10T14:38:39;21.30;;;12.15;;
19998;SDS011;10160;50.926;4.374;2023-05-10T14:41:05;26.52;;;12.93;;
19998;SDS011;10160;50.926;4.374;2023-05-10T14:43:31;21.35;;;12.90;;
19998;SDS011;10160;50.926;4.374;2023-05-10T14:45:57;22.42;;;12.43;;
19998;SDS011;10160;50.926;4.374;2023-05-10T14:48:23;20.70;;;12.35;;
19998;SDS011;10160;50.926;4.374;2023-05-10T14:50:48;21.83;;;11.65;;
19998;SDS011;10160;50.926;4.374;2023-05-10T14:53:15;16.25;;;11.27;;
19998;SDS011;10160;50.926;4.374;2023-05-10T14:55:40;20.63;;;12.13;;
19998;SDS011;10160;50.926;4.374;2023-05-10T14:58:06;19.48;;;12.15;;
19998;SDS011;10160;50.926;4.374;2023-05-10T15:00:32;24.05;;;12.07;;
19998;SDS011;10160;50.926;4.374;2023-05-10T15:02:58;18.63;;;10.48;;
19998;SDS011;10160;50.926;4.374;2023-05-10T15:05:23;15.93;;;9.77;;